Time;durP1;ratioP1;P1;durP2;ratioP2;P2;SDS_P1;SDS_P2;PMS_P1;PMS_P2;Temp;Humidity;BMP_temperature;BMP_pressure;BME280_temperature;BME280_humidity;BME280_pressure;Samples;Min_cycle;Max_cycle;Signal;HPM_P1;HPM_P2
2023/03/08 00:01:17;;;;;;;1.40;1.30;;;15.30;51.00;;;;;;5114018;28;20597;-57
2023/03/08 00:03:42;;;;;;;1.38;1.27;;;15.30;51.00;;;;;;5113615;28;20184;-53
2023/03/08 00:06:11;;;;;;;1.50;1.40;;;15.30;51.10;;;;;;5113217;28;20651;-54
2023/03/08 00:08:36;;;;;;;1.80;1.70;;;15.30;51.10;;;;;;5113884;28;20545;-56
2023/03/08 00:11:09;;;;;;;1.58;1.48;;;15.20;51.10;;;;;;5113772;28;20169;-56
2023/03/08 00:13:35;;;;;;;1.67;1.58;;;15.30;51.10;;;;;;5113299;28;20183;-55
2023/03/08 00:16:01;;;;;;;1.50;1.40;;;15.20;51.00;;;;;;5113432;28;20567;-54
2023/03/08 00:18:27;;;;;;;1.40;1.30;;;15.20;51.00;;;;;;5113771;28;20208;-56
2023/03/08 00:21:03;;;;;;;1.90;1.42;;;15.20;51.10;;;;;;5112829;28;20361;-56
2023/03/08 00:23:29;;;;;;;1.80;1.50;;;15.20;51.10;;;;;;5113705;28;20229;-53
2023/03/08 00:25:54;;;;;;;2.83;1.30;;;15.20;51.10;;;;;;5112777;28;20658;-55
2023/03/08 00:28:20;;;;;;;1.50;1.40;;;15.20;51.10;;;;;;5113583;28;20207;-53
2023/03/08 00:30:57;;;;;;;1.85;1.60;;;15.10;51.00;;;;;;5113171;28;20656;-55
2023/03/08 00:33:22;;;;;;;1.70;1.60;;;15.10;51.00;;;;;;5113254;28;20180;-56
2023/03/08 00:35:56;;;;;;;2.08;1.52;;;15.10;51.00;;;;;;5113113;28;20512;-56
2023/03/08 00:38:21;;;;;;;1.40;1.40;;;15.10;51.00;;;;;;5113504;28;20177;-56
2023/03/08 00:40:47;;;;;;;2.55;1.70;;;15.10;51.00;;;;;;5112486;28;20212;-56
2023/03/08 00:43:12;;;;;;;1.45;1.35;;;15.10;51.00;;;;;;5113389;28;20241;-56
2023/03/08 00:45:38;;;;;;;1.77;1.67;;;15.10;51.00;;;;;;5113400;28;20589;-56
2023/03/08 00:48:03;;;;;;;1.50;1.40;;;15.10;51.00;;;;;;5112389;28;20627;-57
2023/03/08 00:50:29;;;;;;;1.35;1.27;;;15.10;51.00;;;;;;5113565;28;20173;-57
2023/03/08 00:52:55;;;;;;;2.15;1.35;;;15.10;51.00;;;;;;5112791;28;20692;-53
2023/03/08 00:55:21;;;;;;;1.77;1.45;;;15.00;51.00;;;;;;5112506;28;20654;-52
2023/03/08 00:57:46;;;;;;;1.45;1.35;;;15.00;51.00;;;;;;5112851;28;20260;-55
2023/03/08 01:00:12;;;;;;;2.13;1.50;;;15.00;51.00;;;;;;5113279;28;20180;-56
2023/03/08 01:02:39;;;;;;;1.50;1.40;;;15.00;51.00;;;;;;5112638;28;20177;-56
2023/03/08 01:05:08;;;;;;;1.55;1.45;;;15.00;51.00;;;;;;5113076;28;20183;-58
2023/03/08 01:07:34;;;;;;;2.33;1.58;;;15.00;51.00;;;;;;5113094;28;20707;-54
2023/03/08 01:09:59;;;;;;;1.40;1.30;;;15.00;50.90;;;;;;5112151;28;20172;-55
2023/03/08 01:12:25;;;;;;;1.92;1.83;;;14.90;50.90;;;;;;5112973;28;20299;-56
2023/03/08 01:14:53;;;;;;;1.70;1.60;;;14.90;50.90;;;;;;5112749;28;20268;-55
2023/03/08 01:17:19;;;;;;;1.92;1.65;;;14.90;51.00;;;;;;5112748;28;20184;-56
2023/03/08 01:19:44;;;;;;;1.30;1.20;;;14.90;50.90;;;;;;5112814;28;20169;-56
2023/03/08 01:22:10;;;;;;;1.38;1.27;;;14.90;50.90;;;;;;5112135;28;20260;-56
2023/03/08 01:24:35;;;;;;;1.60;1.50;;;14.90;50.90;;;;;;5112987;28;20201;-56
2023/03/08 01:27:01;;;;;;;2.22;1.42;;;14.90;50.90;;;;;;5110754;28;20625;-56
2023/03/08 01:29:27;;;;;;;1.50;1.40;;;14.90;50.90;;;;;;5112299;28;20201;-56
2023/03/08 01:31:53;;;;;;;1.70;1.58;;;14.90;50.90;;;;;;5116415;28;20181;-55
2023/03/08 01:34:19;;;;;;;1.55;1.45;;;14.90;50.90;;;;;;5117065;28;20179;-56
2023/03/08 01:36:44;;;;;;;1.48;1.23;;;14.90;50.90;;;;;;5115974;28;20577;-56
2023/03/08 01:39:10;;;;;;;2.15;1.55;;;14.90;50.90;;;;;;5116837;28;20539;-56
2023/03/08 01:41:35;;;;;;;1.75;1.65;;;14.80;50.80;;;;;;5116700;28;20213;-56
2023/03/08 01:44:01;;;;;;;1.40;1.30;;;14.80;50.80;;;;;;5115552;28;20956;-56
2023/03/08 01:46:33;;;;;;;1.42;1.33;;;14.80;50.80;;;;;;5116870;28;20604;-55
2023/03/08 01:49:10;;;;;;;1.52;1.30;;;14.80;50.80;;;;;;5116381;28;20173;-53
2023/03/08 01:51:45;;;;;;;1.98;1.50;;;14.80;50.80;;;;;;5115947;27;20169;-54
2023/03/08 01:54:19;;;;;;;1.33;1.23;;;14.80;50.80;;;;;;5115361;28;20184;-55
2023/03/08 01:56:45;;;;;;;2.55;1.33;;;14.80;50.80;;;;;;5115314;28;20173;-56
2023/03/08 01:59:10;;;;;;;1.77;1.67;;;14.80;50.90;;;;;;5114817;28;20181;-52
2023/03/08 02:01:36;;;;;;;1.30;1.23;;;14.60;50.80;;;;;;5115245;28;20261;-55
2023/03/08 02:04:02;;;;;;;1.50;1.38;;;14.70;50.70;;;;;;5116152;28;20173;-55
2023/03/08 02:06:27;;;;;;;1.70;1.60;;;14.70;50.80;;;;;;5115524;28;20540;-55
2023/03/08 02:08:53;;;;;;;1.60;1.50;;;14.70;50.80;;;;;;5115839;28;20177;-52
2023/03/08 02:11:18;;;;;;;1.60;1.50;;;14.70;50.70;;;;;;5114580;28;20255;-51
2023/03/08 02:13:44;;;;;;;1.52;1.42;;;14.70;50.80;;;;;;5097859;28;20579;-50
2023/03/08 02:16:11;;;;;;;2.15;1.67;;;14.70;50.80;;;;;;5098179;28;20173;-56
2023/03/08 02:18:36;;;;;;;1.25;1.15;;;14.70;50.80;;;;;;5114353;28;20256;-55
2023/03/08 02:21:02;;;;;;;1.50;1.38;;;14.70;50.80;;;;;;5115562;28;20291;-53
2023/03/08 02:23:27;;;;;;;2.03;1.52;;;14.70;50.80;;;;;;5115864;28;20224;-52
2023/03/08 02:26:01;;;;;;;1.20;1.20;;;14.70;50.80;;;;;;5114768;28;20651;-52
2023/03/08 02:28:27;;;;;;;1.70;1.60;;;14.60;50.80;;;;;;5116114;28;20200;-52
2023/03/08 02:30:53;;;;;;;1.42;1.33;;;14.70;50.80;;;;;;5097515;28;20215;-53
2023/03/08 02:33:18;;;;;;;1.70;1.60;;;14.60;50.80;;;;;;5114917;28;20642;-56
2023/03/08 02:35:44;;;;;;;1.48;1.30;;;14.60;50.70;;;;;;5115312;28;20310;-54
2023/03/08 02:38:10;;;;;;;1.42;1.33;;;14.60;50.80;;;;;;5115790;28;20620;-56
2023/03/08 02:40:36;;;;;;;1.90;1.35;;;14.60;50.70;;;;;;5114804;28;20205;-55
2023/03/08 02:43:02;;;;;;;1.58;1.48;;;14.60;50.70;;;;;;5114241;28;20277;-56
2023/03/08 02:45:28;;;;;;;1.65;1.55;;;14.60;50.70;;;;;;5115634;28;20173;-56
2023/03/08 02:47:53;;;;;;;1.70;1.60;;;14.60;50.70;;;;;;5114477;28;20173;-55
2023/03/08 02:50:19;;;;;;;1.98;1.55;;;14.60;50.80;;;;;;5115531;28;20161;-54
2023/03/08 02:52:44;;;;;;;1.80;1.70;;;14.60;50.80;;;;;;5115226;28;20180;-55
2023/03/08 02:55:10;;;;;;;1.92;1.83;;;14.60;50.70;;;;;;5115017;28;20173;-55
2023/03/08 02:57:35;;;;;;;1.63;1.52;;;14.60;50.80;;;;;;5115387;28;20559;-53
2023/03/08 03:00:01;;;;;;;2.25;2.05;;;14.50;50.70;;;;;;5114937;28;20284;-53
2023/03/08 03:02:26;;;;;;;1.92;1.83;;;14.60;50.80;;;;;;5114584;28;20185;-56
2023/03/08 03:04:52;;;;;;;2.25;2.13;;;14.50;50.70;;;;;;5114749;28;20230;-53
2023/03/08 03:07:17;;;;;;;1.88;1.77;;;14.50;50.80;;;;;;5115100;28;20241;-53
2023/03/08 03:09:43;;;;;;;1.73;1.63;;;14.50;50.80;;;;;;5114318;28;20658;-55
2023/03/08 03:12:08;;;;;;;2.15;1.95;;;14.50;50.70;;;;;;5115148;28;20580;-53
2023/03/08 03:14:34;;;;;;;1.90;1.80;;;14.50;50.70;;;;;;5114355;28;20632;-55
2023/03/08 03:16:59;;;;;;;1.90;1.80;;;14.50;50.70;;;;;;5114689;28;20580;-53
2023/03/08 03:19:25;;;;;;;2.00;1.90;;;14.50;50.80;;;;;;5114842;28;20549;-56
2023/03/08 03:21:50;;;;;;;2.00;1.80;;;14.50;50.80;;;;;;5113631;28;21067;-56
2023/03/08 03:24:16;;;;;;;1.80;1.70;;;14.50;50.80;;;;;;5114724;28;20533;-55
2023/03/08 03:26:41;;;;;;;2.20;2.00;;;14.50;50.70;;;;;;5114629;28;20200;-55
2023/03/08 03:29:07;;;;;;;2.10;2.00;;;14.50;50.70;;;;;;5114287;28;20531;-56
2023/03/08 03:31:33;;;;;;;2.78;2.25;;;14.50;50.80;;;;;;5114572;28;20631;-54
2023/03/08 03:33:58;;;;;;;2.30;2.10;;;14.50;50.80;;;;;;5114543;28;20519;-55
2023/03/08 03:36:24;;;;;;;2.97;2.05;;;14.50;50.80;;;;;;5113795;28;20169;-55
2023/03/08 03:38:49;;;;;;;2.25;2.05;;;14.50;50.70;;;;;;5114107;28;20169;-57
2023/03/08 03:41:17;;;;;;;1.92;1.83;;;14.40;50.70;;;;;;5114639;28;20211;-56
2023/03/08 03:43:42;;;;;;;2.03;1.92;;;14.40;50.70;;;;;;5113454;28;20180;-55
2023/03/08 03:46:10;;;;;;;2.00;1.90;;;14.40;50.70;;;;;;5114592;28;20177;-51
2023/03/08 03:48:36;;;;;;;2.17;2.00;;;14.40;50.70;;;;;;5114340;28;20173;-55
2023/03/08 03:51:06;;;;;;;2.75;2.40;;;14.40;50.70;;;;;;5113163;28;20177;-56
2023/03/08 03:53:32;;;;;;;2.63;2.42;;;14.40;50.70;;;;;;5114369;28;20177;-53
2023/03/08 03:56:10;;;;;;;1.98;1.88;;;14.40;50.70;;;;;;5114071;28;20184;-50
2023/03/08 03:58:36;;;;;;;2.08;1.98;;;14.40;50.80;;;;;;5113563;28;20169;-55
2023/03/08 04:01:07;;;;;;;2.40;2.20;;;14.40;50.80;;;;;;5113805;28;20219;-56
2023/03/08 04:03:32;;;;;;;2.15;2.05;;;14.40;50.70;;;;;;5114128;28;20181;-57
2023/03/08 04:06:05;;;;;;;2.50;2.10;;;14.40;50.70;;;;;;5113234;28;20214;-53
2023/03/08 04:08:31;;;;;;;2.40;2.22;;;14.40;50.80;;;;;;5114185;28;20252;-55
2023/03/08 04:10:59;;;;;;;2.45;2.28;;;14.40;50.80;;;;;;5113127;28;20252;-54
2023/03/08 04:13:24;;;;;;;2.40;2.20;;;14.40;50.70;;;;;;5114019;28;20180;-55
2023/03/08 04:15:50;;;;;;;2.40;2.20;;;14.30;50.70;;;;;;5113641;28;20177;-55
2023/03/08 04:18:16;;;;;;;2.50;2.30;;;14.30;50.70;;;;;;5113058;28;20177;-56
2023/03/08 04:20:44;;;;;;;2.53;2.33;;;14.30;50.70;;;;;;5113632;28;20197;-55
2023/03/08 04:23:09;;;;;;;2.67;2.47;;;14.30;50.70;;;;;;5113657;28;20621;-55
2023/03/08 04:25:35;;;;;;;3.28;2.53;;;14.30;50.80;;;;;;5112860;28;20165;-54
2023/03/08 04:28:00;;;;;;;2.50;2.30;;;14.30;50.70;;;;;;5113288;28;20207;-56
2023/03/08 04:30:26;;;;;;;2.60;2.42;;;14.30;51.40;;;;;;5113767;28;20198;-52
2023/03/08 04:32:51;;;;;;;3.25;2.65;;;14.30;50.70;;;;;;5112786;28;20198;-54
2023/03/08 04:35:17;;;;;;;2.95;2.72;;;14.30;50.70;;;;;;5113727;28;20214;-55
2023/03/08 04:37:44;;;;;;;3.42;3.13;;;14.30;50.80;;;;;;5113403;28;20666;-54
2023/03/08 04:40:12;;;;;;;3.03;2.72;;;14.30;50.70;;;;;;5112683;28;20244;-55
2023/03/08 04:42:39;;;;;;;2.90;2.70;;;14.30;50.80;;;;;;5113517;28;20173;-53
2023/03/08 04:45:06;;;;;;;3.47;3.17;;;14.20;50.80;;;;;;5113139;28;20603;-54
2023/03/08 04:47:31;;;;;;;3.35;3.03;;;14.30;50.90;;;;;;5112897;28;20189;-55
2023/03/08 04:49:57;;;;;;;3.28;2.97;;;14.30;50.70;;;;;;5113317;28;20310;-55
2023/03/08 04:52:23;;;;;;;3.65;3.35;;;14.20;50.70;;;;;;5113518;28;20278;-57
2023/03/08 04:54:48;;;;;;;3.25;2.95;;;14.20;50.80;;;;;;5112605;28;20169;-58
2023/03/08 04:57:14;;;;;;;3.40;3.10;;;14.20;50.80;;;;;;5113274;28;20180;-55
2023/03/08 04:59:39;;;;;;;3.75;3.45;;;14.20;50.80;;;;;;5112778;28;20269;-56
2023/03/08 05:02:05;;;;;;;3.47;3.17;;;14.20;50.80;;;;;;5110897;28;20299;-56
2023/03/08 05:04:30;;;;;;;3.58;3.28;;;14.20;50.80;;;;;;5113502;28;20268;-56
2023/03/08 05:06:56;;;;;;;3.60;3.30;;;14.20;50.80;;;;;;5117370;28;20196;-52
2023/03/08 05:09:21;;;;;;;4.03;3.63;;;14.20;50.90;;;;;;5116817;28;20178;-55
2023/03/08 05:11:47;;;;;;;4.10;3.70;;;14.20;50.80;;;;;;5117155;28;20168;-55
2023/03/08 05:14:12;;;;;;;4.10;3.70;;;14.20;50.80;;;;;;5116633;28;20177;-55
2023/03/08 05:16:38;;;;;;;4.80;4.35;;;14.20;50.80;;;;;;5117405;28;20624;-54
2023/03/08 05:19:03;;;;;;;4.32;3.92;;;14.20;50.80;;;;;;5117079;28;20165;-51
2023/03/08 05:21:29;;;;;;;4.45;3.83;;;14.10;50.80;;;;;;5116566;28;20216;-52
2023/03/08 05:23:54;;;;;;;4.05;3.65;;;14.20;50.80;;;;;;5116853;28;20173;-53
2023/03/08 05:26:20;;;;;;;4.30;3.90;;;14.10;50.70;;;;;;5117264;28;20624;-51
2023/03/08 05:28:45;;;;;;;4.78;4.15;;;14.20;50.80;;;;;;5115967;28;20177;-54
2023/03/08 05:31:13;;;;;;;4.50;4.10;;;14.10;50.80;;;;;;5117108;28;20165;-54
2023/03/08 05:33:38;;;;;;;4.70;4.20;;;14.10;50.80;;;;;;5117190;28;20534;-54
2023/03/08 05:36:04;;;;;;;4.30;3.90;;;14.10;50.80;;;;;;5115982;28;20649;-52
2023/03/08 05:38:30;;;;;;;4.47;4.07;;;14.10;50.80;;;;;;5116985;28;20177;-55
2023/03/08 05:41:00;;;;;;;4.40;4.00;;;14.10;50.80;;;;;;5116597;28;20209;-59
2023/03/08 05:43:26;;;;;;;4.63;4.18;;;14.10;50.80;;;;;;5116064;28;20212;-56
2023/03/08 05:45:59;;;;;;;4.38;3.97;;;14.10;50.80;;;;;;5116693;28;20205;-55
2023/03/08 05:48:25;;;;;;;5.40;4.90;;;14.10;50.90;;;;;;5116787;28;20177;-56
2023/03/08 05:50:51;;;;;;;5.20;4.70;;;14.10;50.80;;;;;;5115798;28;20689;-55
2023/03/08 05:53:16;;;;;;;5.40;4.30;;;14.10;50.70;;;;;;5116675;28;20177;-55
2023/03/08 05:55:42;;;;;;;5.18;4.68;;;14.20;50.70;;;;;;5116184;28;20639;-52
2023/03/08 05:58:07;;;;;;;4.82;4.43;;;14.20;50.70;;;;;;5115821;28;20552;-54
2023/03/08 06:00:33;;;;;;;4.30;3.55;;;14.20;50.60;;;;;;5116570;28;20561;-55
2023/03/08 06:02:59;;;;;;;4.75;4.35;;;14.30;50.60;;;;;;5116205;28;20606;-55
2023/03/08 06:05:24;;;;;;;4.57;4.10;;;14.30;50.60;;;;;;5115760;28;20583;-57
2023/03/08 06:07:50;;;;;;;4.43;4.00;;;14.40;50.50;;;;;;5116007;28;20176;-53
2023/03/08 06:10:16;;;;;;;4.38;3.97;;;14.40;51.00;;;;;;5116225;28;20192;-54
2023/03/08 06:12:41;;;;;;;4.03;3.63;;;14.60;50.20;;;;;;5115410;27;20206;-55
2023/03/08 06:15:07;;;;;;;4.70;4.22;;;14.70;50.00;;;;;;5116210;28;20193;-52
2023/03/08 06:17:33;;;;;;;4.13;3.72;;;14.90;49.90;;;;;;5115364;28;20173;-52
2023/03/08 06:19:58;;;;;;;4.72;4.28;;;15.10;49.70;;;;;;5115878;28;20173;-57
2023/03/08 06:22:24;;;;;;;4.03;3.72;;;15.30;49.50;;;;;;5115869;28;20229;-56
2023/03/08 06:24:49;;;;;;;3.78;3.42;;;15.40;49.20;;;;;;5115130;28;20169;-55
2023/03/08 06:27:16;;;;;;;4.22;3.67;;;15.50;48.90;;;;;;5115997;28;20185;-56
2023/03/08 06:29:41;;;;;;;4.20;3.80;;;15.70;48.80;;;;;;5115623;28;20173;-52
2023/03/08 06:32:07;;;;;;;4.38;3.97;;;15.90;48.70;;;;;;5115131;28;20172;-56
2023/03/08 06:34:32;;;;;;;4.00;3.70;;;16.00;48.40;;;;;;5115768;28;20165;-55
2023/03/08 06:36:58;;;;;;;4.13;3.70;;;16.00;48.30;;;;;;5115560;28;20169;-56
2023/03/08 06:39:24;;;;;;;3.85;3.55;;;16.00;48.30;;;;;;5115096;28;20180;-55
2023/03/08 06:41:52;;;;;;;4.30;3.95;;;16.10;48.30;;;;;;5115250;28;20205;-55
2023/03/08 06:44:18;;;;;;;4.47;3.97;;;16.10;48.20;;;;;;5115562;28;20642;-56
2023/03/08 06:46:43;;;;;;;3.60;3.30;;;16.10;48.20;;;;;;5114643;28;20177;-56
2023/03/08 06:49:09;;;;;;;4.43;4.03;;;16.10;48.30;;;;;;5115677;28;20169;-56
2023/03/08 06:51:34;;;;;;;3.45;3.15;;;16.10;48.30;;;;;;5115693;28;20169;-55
2023/03/08 06:54:03;;;;;;;4.13;3.72;;;16.20;48.30;;;;;;5114437;28;20703;-55
2023/03/08 06:56:47;;;;;;;4.60;3.85;;;16.10;48.30;;;;;;5115665;28;20263;-60
2023/03/08 06:59:12;;;;;;;4.35;3.95;;;16.10;48.30;;;;;;5115420;28;20176;-53
2023/03/08 07:01:38;;;;;;;3.35;3.05;;;16.10;48.40;;;;;;5114494;28;20208;-56
2023/03/08 07:04:03;;;;;;;3.78;3.47;;;16.30;48.30;;;;;;5114943;28;20169;-56
2023/03/08 07:06:29;;;;;;;4.32;3.65;;;16.50;48.10;;;;;;5114985;28;20540;-54
2023/03/08 07:08:54;;;;;;;4.30;3.90;;;16.60;47.80;;;;;;5114261;28;20177;-52
2023/03/08 07:11:20;;;;;;;3.60;3.30;;;16.80;47.40;;;;;;5115223;28;20165;-51
2023/03/08 07:13:45;;;;;;;4.03;3.65;;;16.90;47.50;;;;;;5114211;28;20169;-53
2023/03/08 07:16:11;;;;;;;4.10;3.70;;;17.10;47.20;;;;;;5115073;28;20177;-53
2023/03/08 07:18:37;;;;;;;3.72;3.33;;;17.20;46.90;;;;;;5114866;28;20187;-55
2023/03/08 07:21:03;;;;;;;4.05;3.67;;;17.30;46.90;;;;;;5113828;28;20208;-53
2023/03/08 07:23:28;;;;;;;3.75;3.45;;;17.30;46.90;;;;;;5114602;28;20727;-53
2023/03/08 07:25:54;;;;;;;4.35;3.95;;;17.20;47.00;;;;;;5114589;28;20177;-54
2023/03/08 07:28:19;;;;;;;3.67;3.38;;;17.10;47.20;;;;;;5113594;28;20169;-55
2023/03/08 07:30:47;;;;;;;4.30;3.90;;;17.00;47.30;;;;;;5114511;28;20549;-55
2023/03/08 07:33:13;;;;;;;3.30;3.10;;;17.00;47.50;;;;;;5114818;28;20205;-50
2023/03/08 07:35:38;;;;;;;4.18;3.75;;;17.00;47.50;;;;;;5113878;28;20609;-56
2023/03/08 07:38:04;;;;;;;4.00;3.67;;;16.90;47.40;;;;;;5114039;28;20260;-56
2023/03/08 07:40:29;;;;;;;4.18;3.78;;;16.90;47.50;;;;;;5114340;28;20245;-56
2023/03/08 07:42:55;;;;;;;4.03;3.70;;;16.90;47.40;;;;;;5113612;28;20216;-57
2023/03/08 07:45:21;;;;;;;4.75;4.05;;;16.90;47.60;;;;;;5114384;28;20552;-56
2023/03/08 07:47:50;;;;;;;4.00;3.60;;;16.80;47.80;;;;;;5114223;28;20177;-50
2023/03/08 07:50:19;;;;;;;4.20;3.80;;;16.80;47.90;;;;;;5113513;28;20196;-58
2023/03/08 07:52:45;;;;;;;4.28;3.88;;;16.80;48.00;;;;;;5114001;28;20177;-64
2023/03/08 07:55:10;;;;;;;4.57;4.13;;;16.80;48.10;;;;;;5113939;28;20262;-62
2023/03/08 07:57:36;;;;;;;4.60;4.18;;;16.80;48.10;;;;;;5113117;28;20180;-63
2023/03/08 08:00:06;;;;;;;5.60;3.92;;;17.00;48.30;;;;;;5113704;28;20177;-67
2023/03/08 08:02:32;;;;;;;5.25;4.75;;;17.00;48.20;;;;;;5113960;28;20615;-66
2023/03/08 08:04:58;;;;;;;6.15;4.78;;;17.10;48.50;;;;;;5112611;28;20181;-61
2023/03/08 08:07:24;;;;;;;5.22;4.07;;;17.10;48.50;;;;;;5113347;28;20229;-61
2023/03/08 08:09:49;;;;;;;4.70;3.83;;;17.20;48.40;;;;;;5113110;28;20191;-60
2023/03/08 08:12:15;;;;;;;4.47;4.00;;;17.40;48.50;;;;;;5112646;28;20169;-60
2023/03/08 08:14:40;;;;;;;4.47;3.97;;;17.30;48.50;;;;;;5113225;28;20218;-62
2023/03/08 08:17:06;;;;;;;4.63;3.63;;;17.30;48.40;;;;;;5113532;27;20588;-62
2023/03/08 08:19:31;;;;;;;6.82;5.07;;;17.30;48.50;;;;;;5115468;27;20619;-62
2023/03/08 08:21:57;;;;;;;5.00;4.28;;;17.30;48.60;;;;;;5113794;27;20767;-62
2023/03/08 08:24:22;;;;;;;5.55;4.93;;;17.30;48.60;;;;;;5113981;27;20580;-63
2023/03/08 08:26:48;;;;;;;8.18;5.10;;;17.30;48.60;;;;;;5134008;27;20168;-62
2023/03/08 08:29:13;;;;;;;6.85;5.30;;;17.30;48.70;;;;;;5117677;27;20606;-62
2023/03/08 08:31:39;;;;;;;6.13;4.47;;;17.30;48.80;;;;;;5112607;28;20722;-63
2023/03/08 08:34:05;;;;;;;5.05;4.55;;;17.30;48.90;;;;;;5124758;27;20263;-63
2023/03/08 08:36:30;;;;;;;4.95;4.45;;;17.20;48.80;;;;;;5128432;27;20218;-63
2023/03/08 08:38:56;;;;;;;5.65;5.15;;;17.20;48.90;;;;;;5111859;28;20177;-62
2023/03/08 08:41:22;;;;;;;6.63;5.30;;;17.20;49.10;;;;;;5112465;28;20208;-62
2023/03/08 08:43:48;;;;;;;4.97;4.47;;;17.20;49.10;;;;;;5112875;28;20169;-62
2023/03/08 08:46:14;;;;;;;5.85;5.25;;;17.20;49.10;;;;;;5112562;28;20222;-61
2023/03/08 08:48:39;;;;;;;5.90;4.60;;;17.20;49.10;;;;;;5113122;28;20628;-62
2023/03/08 08:51:06;;;;;;;6.85;5.20;;;17.20;49.10;;;;;;5124199;27;20530;-61
2023/03/08 08:53:31;;;;;;;5.85;5.25;;;17.10;49.20;;;;;;5133141;27;20172;-61
2023/03/08 08:55:57;;;;;;;6.13;4.78;;;17.10;49.20;;;;;;5133558;28;20168;-61
2023/03/08 08:58:23;;;;;;;6.10;5.50;;;17.00;49.30;;;;;;5133884;28;20175;-62
2023/03/08 09:00:48;;;;;;;5.05;4.55;;;16.90;49.40;;;;;;5132765;28;20654;-62
2023/03/08 09:03:14;;;;;;;6.47;5.25;;;16.90;49.40;;;;;;5118931;28;20195;-62
2023/03/08 09:05:41;;;;;;;5.97;5.38;;;16.90;49.60;;;;;;5113148;28;20188;-61
2023/03/08 09:08:06;;;;;;;5.47;4.93;;;16.90;49.70;;;;;;5111931;28;20255;-61
2023/03/08 09:10:33;;;;;;;6.07;4.97;;;16.90;49.70;;;;;;5112907;28;20263;-61
2023/03/08 09:12:59;;;;;;;5.88;5.15;;;16.80;49.60;;;;;;5111991;28;20627;-61
2023/03/08 09:15:24;;;;;;;5.82;4.80;;;16.80;49.60;;;;;;5112231;28;20172;-61
2023/03/08 09:17:50;;;;;;;6.28;5.68;;;16.80;49.70;;;;;;5112802;28;20169;-61
2023/03/08 09:20:16;;;;;;;5.93;5.22;;;16.70;50.30;;;;;;5111971;28;20179;-66
2023/03/08 09:22:41;;;;;;;8.10;5.28;;;16.70;49.70;;;;;;5112625;28;20225;-62
2023/03/08 09:25:08;;;;;;;6.15;4.85;;;16.70;49.90;;;;;;5123489;28;20172;-62
2023/03/08 09:27:34;;;;;;;6.05;4.80;;;16.60;50.30;;;;;;5132730;27;20233;-61
2023/03/08 09:29:59;;;;;;;6.75;4.70;;;16.70;50.10;;;;;;5133375;28;20259;-62
2023/03/08 09:32:25;;;;;;;12.15;5.20;;;16.70;50.20;;;;;;5133326;28;20172;-61
2023/03/08 09:34:51;;;;;;;8.40;5.40;;;16.60;50.20;;;;;;5132389;27;20179;-62
2023/03/08 09:37:17;;;;;;;7.00;4.93;;;16.70;50.20;;;;;;5119519;27;20176;-61
2023/03/08 09:39:43;;;;;;;5.38;4.65;;;16.70;50.20;;;;;;5112459;28;20173;-62
2023/03/08 09:42:36;;;;;;;5.70;4.70;;;16.70;50.10;;;;;;5112157;28;20213;-62
2023/03/08 09:45:04;;;;;;;5.88;4.38;;;16.60;50.00;;;;;;5109788;28;20284;-62
2023/03/08 09:47:41;;;;;;;5.72;4.88;;;16.60;50.00;;;;;;5113045;28;20528;-61
2023/03/08 09:50:10;;;;;;;5.60;4.57;;;16.60;50.70;;;;;;5112213;28;20176;-61
2023/03/08 09:52:40;;;;;;;6.78;4.50;;;16.50;50.20;;;;;;5116177;28;20264;-61
2023/03/08 09:55:14;;;;;;;5.93;4.72;;;16.50;50.30;;;;;;5116231;28;20658;-61
2023/03/08 09:57:46;;;;;;;5.63;4.75;;;16.50;50.10;;;;;;5114543;28;20175;-62
2023/03/08 10:00:28;;;;;;;5.20;4.65;;;16.50;50.30;;;;;;5115524;28;20165;-63
2023/03/08 10:03:02;;;;;;;5.13;4.72;;;16.50;50.20;;;;;;5114257;28;20189;-64
2023/03/08 10:05:41;;;;;;;4.63;4.10;;;16.50;50.20;;;;;;5115032;28;20199;-63
2023/03/08 10:08:16;;;;;;;5.45;4.18;;;16.50;50.30;;;;;;5116333;28;20639;-62
2023/03/08 10:10:47;;;;;;;5.20;4.70;;;16.50;50.30;;;;;;5114271;28;20179;-62
2023/03/08 10:13:33;;;;;;;6.53;4.88;;;16.50;50.20;;;;;;5116149;28;20173;-62
2023/03/08 10:16:26;;;;;;;5.00;4.50;;;16.50;50.20;;;;;;5114581;28;20534;-62
2023/03/08 10:19:06;;;;;;;5.55;5.00;;;16.50;50.20;;;;;;5112391;28;20181;-62
2023/03/08 10:21:32;;;;;;;5.85;5.00;;;16.50;50.30;;;;;;5114691;28;20209;-62
2023/03/08 10:24:25;;;;;;;5.05;4.53;;;16.50;50.20;;;;;;5114423;27;20644;-63
2023/03/08 10:26:51;;;;;;;6.30;4.80;;;16.50;50.20;;;;;;5135208;27;20267;-63
2023/03/08 10:29:16;;;;;;;7.25;5.00;;;16.40;50.20;;;;;;5136310;27;20264;-63
2023/03/08 10:31:42;;;;;;;4.72;4.25;;;16.50;50.30;;;;;;5135163;27;20184;-63
2023/03/08 10:34:12;;;;;;;5.95;4.82;;;16.40;50.20;;;;;;5136602;27;20172;-64
2023/03/08 10:37:13;;;;;;;5.07;4.55;;;16.50;50.20;;;;;;5127802;27;20176;-63
2023/03/08 10:39:53;;;;;;;4.35;3.95;;;16.60;50.20;;;;;;5052083;28;20229;-62
2023/03/08 10:42:25;;;;;;;5.88;4.75;;;16.50;50.20;;;;;;5108847;28;20290;-62
2023/03/08 10:44:55;;;;;;;6.10;4.65;;;16.50;50.10;;;;;;5114645;28;20260;-63
2023/03/08 10:47:31;;;;;;;4.65;4.15;;;16.50;50.10;;;;;;5115532;28;20230;-63
2023/03/08 10:50:18;;;;;;;5.07;4.57;;;16.50;50.10;;;;;;5115238;28;20192;-62
2023/03/08 10:52:45;;;;;;;4.95;4.43;;;16.50;50.10;;;;;;5114520;28;20173;-62
2023/03/08 10:55:18;;;;;;;6.25;5.07;;;16.40;50.10;;;;;;5115218;28;20191;-63
2023/03/08 10:58:02;;;;;;;5.95;4.93;;;16.40;50.20;;;;;;5114851;28;20683;-64
2023/03/08 11:00:38;;;;;;;5.00;4.57;;;16.40;50.30;;;;;;5113516;28;20169;-64
2023/03/08 11:03:17;;;;;;;4.80;4.30;;;16.40;50.20;;;;;;5112604;28;20176;-64
2023/03/08 11:06:11;;;;;;;5.45;4.78;;;16.50;50.20;;;;;;5114768;28;20226;-64
2023/03/08 11:08:39;;;;;;;5.00;4.43;;;16.50;50.00;;;;;;5114148;28;20164;-64
2023/03/08 11:11:12;;;;;;;5.25;4.75;;;16.50;50.00;;;;;;5113775;28;20173;-63
2023/03/08 11:13:43;;;;;;;5.60;5.00;;;16.50;50.00;;;;;;5114101;28;20252;-63
2023/03/08 11:16:27;;;;;;;5.07;4.30;;;16.40;50.00;;;;;;5115121;28;20180;-62
2023/03/08 11:19:14;;;;;;;4.60;4.20;;;16.40;50.10;;;;;;5114496;28;20181;-62
2023/03/08 11:22:09;;;;;;;5.75;4.22;;;16.40;50.10;;;;;;5113774;28;20252;-62
2023/03/08 11:24:44;;;;;;;5.40;4.90;;;16.40;50.30;;;;;;5114704;28;20181;-63
2023/03/08 11:27:13;;;;;;;5.90;4.88;;;16.40;50.30;;;;;;5112889;28;20176;-63
2023/03/08 11:29:41;;;;;;;5.22;4.20;;;16.30;50.20;;;;;;5114804;28;20177;-63
2023/03/08 11:32:16;;;;;;;5.45;4.95;;;16.30;50.20;;;;;;5113521;28;20180;-63
2023/03/08 11:34:49;;;;;;;4.57;4.18;;;16.30;50.20;;;;;;5112716;28;20305;-64
2023/03/08 11:37:42;;;;;;;6.63;5.57;;;16.30;50.20;;;;;;5114382;28;20173;-63
2023/03/08 11:40:23;;;;;;;5.28;4.22;;;16.30;50.20;;;;;;5111925;28;20525;-63
2023/03/08 11:42:54;;;;;;;5.13;4.15;;;16.30;50.30;;;;;;5112287;28;20663;-63
2023/03/08 11:46:00;;;;;;;5.95;4.47;;;16.20;50.20;;;;;;5113274;28;20642;-63
2023/03/08 11:48:32;;;;;;;5.38;4.38;;;16.20;50.30;;;;;;5112684;28;20177;-63
2023/03/08 11:51:17;;;;;;;4.53;4.13;;;16.10;50.30;;;;;;5114370;28;20173;-62
2023/03/08 11:54:04;;;;;;;4.68;4.05;;;16.10;50.30;;;;;;5112924;28;20177;-62
2023/03/08 11:56:36;;;;;;;4.75;4.35;;;16.10;50.30;;;;;;5113424;28;20272;-63
2023/03/08 11:59:14;;;;;;;5.05;4.55;;;16.20;50.30;;;;;;5112613;28;20639;-64
2023/03/08 12:01:55;;;;;;;5.18;4.70;;;16.20;50.30;;;;;;5114095;28;20217;-64
2023/03/08 12:04:26;;;;;;;5.30;4.78;;;16.20;50.20;;;;;;5112085;28;20187;-64
2023/03/08 12:06:53;;;;;;;5.40;4.65;;;16.20;50.20;;;;;;5112318;28;20627;-63
2023/03/08 12:09:32;;;;;;;4.57;4.18;;;16.20;50.20;;;;;;5113185;28;20938;-63
2023/03/08 12:12:09;;;;;;;5.40;4.43;;;16.20;50.20;;;;;;5112398;28;20179;-63
2023/03/08 12:15:04;;;;;;;5.05;4.45;;;16.10;50.20;;;;;;5113736;28;20172;-63
2023/03/08 12:17:33;;;;;;;4.60;4.10;;;16.10;50.30;;;;;;5111570;28;20238;-63
2023/03/08 12:19:59;;;;;;;5.15;4.32;;;16.00;50.30;;;;;;5112308;28;20181;-62
2023/03/08 12:22:29;;;;;;;4.40;4.10;;;16.00;50.30;;;;;;5113581;28;20285;-63
2023/03/08 12:25:26;;;;;;;4.82;4.35;;;16.00;50.30;;;;;;5112705;28;20246;-63
2023/03/08 12:28:16;;;;;;;5.50;4.28;;;16.10;50.20;;;;;;5112300;28;20537;-64
2023/03/08 12:31:12;;;;;;;4.35;3.90;;;16.10;50.20;;;;;;5112713;28;20165;-64
2023/03/08 12:33:38;;;;;;;4.13;3.72;;;16.20;50.00;;;;;;5113456;28;20165;-64
2023/03/08 12:36:05;;;;;;;4.72;4.32;;;16.20;49.90;;;;;;5113210;28;20177;-63
2023/03/08 12:38:37;;;;;;;4.80;4.40;;;16.30;49.90;;;;;;5111603;28;20256;-63
2023/03/08 12:41:05;;;;;;;4.55;4.15;;;16.30;49.80;;;;;;5113168;28;20647;-64
2023/03/08 12:43:32;;;;;;;4.13;3.83;;;16.30;49.80;;;;;;5112147;28;20188;-63
2023/03/08 12:45:58;;;;;;;4.05;3.70;;;16.30;49.60;;;;;;5110905;28;20173;-63
2023/03/08 12:48:29;;;;;;;4.13;3.72;;;16.40;49.60;;;;;;5113173;28;20185;-63
2023/03/08 12:51:11;;;;;;;3.95;3.58;;;16.50;49.50;;;;;;5113143;28;20184;-62
2023/03/08 12:53:49;;;;;;;4.30;3.90;;;16.60;49.30;;;;;;5111736;28;20173;-62
2023/03/08 12:56:28;;;;;;;4.22;3.83;;;16.60;49.20;;;;;;5113089;28;20631;-63